sensor_id;sensor_type;location;lat;lon;timestamp;P1;durP1;ratioP1;P2;durP2;ratioP2
8665;SDS011;4370;48.916;8.380;2022-09-13T00:01:24;3.90;;;3.60;;
8665;SDS011;4370;48.916;8.380;2022-09-13T00:03:52;3.37;;;3.00;;
8665;SDS011;4370;48.916;8.380;2022-09-13T00:06:18;3.67;;;3.37;;
8665;SDS011;4370;48.916;8.380;2022-09-13T00:08:45;3.60;;;3.30;;
8665;SDS011;4370;48.916;8.380;2022-09-13T00:11:15;3.53;;;3.23;;
8665;SDS011;4370;48.916;8.380;2022-09-13T00:13:44;4.00;;;3.50;;
8665;SDS011;4370;48.916;8.380;2022-09-13T00:16:11;3.90;;;3.60;;
8665;SDS011;4370;48.916;8.380;2022-09-13T00:18:39;3.80;;;3.50;;
8665;SDS011;4370;48.916;8.380;2022-09-13T00:21:06;4.30;;;3.90;;
8665;SDS011;4370;48.916;8.380;2022-09-13T00:23:38;4.67;;;4.27;;
8665;SDS011;4370;48.916;8.380;2022-09-13T00:26:07;5.20;;;4.20;;
8665;SDS011;4370;48.916;8.380;2022-09-13T00:28:35;4.30;;;3.90;;
8665;SDS011;4370;48.916;8.380;2022-09-13T00:31:01;4.10;;;3.70;;
8665;SDS011;4370;48.916;8.380;2022-09-13T00:33:28;4.27;;;3.87;;
8665;SDS011;4370;48.916;8.380;2022-09-13T00:35:54;4.40;;;4.00;;
8665;SDS011;4370;48.916;8.380;2022-09-13T00:38:21;3.70;;;3.40;;
8665;SDS011;4370;48.916;8.380;2022-09-13T00:40:47;4.27;;;3.87;;
8665;SDS011;4370;48.916;8.380;2022-09-13T00:43:19;3.87;;;3.57;;
8665;SDS011;4370;48.916;8.380;2022-09-13T00:46:03;4.00;;;3.53;;
8665;SDS011;4370;48.916;8.380;2022-09-13T00:48:29;4.17;;;3.77;;
8665;SDS011;4370;48.916;8.380;2022-09-13T00:50:56;3.70;;;3.30;;
8665;SDS011;4370;48.916;8.380;2022-09-13T00:53:24;3.77;;;3.47;;
8665;SDS011;4370;48.916;8.380;2022-09-13T00:56:01;4.37;;;3.97;;
8665;SDS011;4370;48.916;8.380;2022-09-13T01:01:00;3.80;;;3.50;;
8665;SDS011;4370;48.916;8.380;2022-09-13T01:03:29;4.47;;;3.97;;
8665;SDS011;4370;48.916;8.380;2022-09-13T01:06:03;3.83;;;3.53;;
8665;SDS011;4370;48.916;8.380;2022-09-13T01:08:34;3.87;;;3.57;;
8665;SDS011;4370;48.916;8.380;2022-09-13T01:11:01;4.00;;;3.70;;
8665;SDS011;4370;48.916;8.380;2022-09-13T01:13:32;3.87;;;3.40;;
8665;SDS011;4370;48.916;8.380;2022-09-13T01:15:59;4.10;;;3.70;;
8665;SDS011;4370;48.916;8.380;2022-09-13T01:18:26;4.47;;;4.07;;
8665;SDS011;4370;48.916;8.380;2022-09-13T01:24:05;4.37;;;3.97;;
8665;SDS011;4370;48.916;8.380;2022-09-13T01:29:34;4.43;;;4.03;;
8665;SDS011;4370;48.916;8.380;2022-09-13T01:40:23;4.40;;;4.00;;
8665;SDS011;4370;48.916;8.380;2022-09-13T01:46:06;4.87;;;4.37;;
8665;SDS011;4370;48.916;8.380;2022-09-13T01:51:46;5.30;;;4.40;;
8665;SDS011;4370;48.916;8.380;2022-09-13T01:54:17;4.97;;;4.47;;
8665;SDS011;4370;48.916;8.380;2022-09-13T01:56:57;5.00;;;4.50;;
8665;SDS011;4370;48.916;8.380;2022-09-13T02:02:19;4.43;;;4.03;;
8665;SDS011;4370;48.916;8.380;2022-09-13T02:05:10;4.47;;;4.07;;
8665;SDS011;4370;48.916;8.380;2022-09-13T02:07:41;7.73;;;4.33;;
8665;SDS011;4370;48.916;8.380;2022-09-13T02:10:17;5.57;;;4.50;;
8665;SDS011;4370;48.916;8.380;2022-09-13T02:12:51;4.40;;;4.00;;
8665;SDS011;4370;48.916;8.380;2022-09-13T02:15:20;4.87;;;4.13;;
8665;SDS011;4370;48.916;8.380;2022-09-13T02:17:52;4.43;;;4.03;;
8665;SDS011;4370;48.916;8.380;2022-09-13T02:20:29;6.20;;;4.23;;
8665;SDS011;4370;48.916;8.380;2022-09-13T02:23:06;4.97;;;4.37;;
8665;SDS011;4370;48.916;8.380;2022-09-13T02:25:38;5.27;;;4.50;;
8665;SDS011;4370;48.916;8.380;2022-09-13T02:28:08;6.80;;;4.40;;
8665;SDS011;4370;48.916;8.380;2022-09-13T02:30:40;5.07;;;4.30;;
8665;SDS011;4370;48.916;8.380;2022-09-13T02:33:11;4.50;;;4.10;;
8665;SDS011;4370;48.916;8.380;2022-09-13T02:35:47;6.77;;;4.83;;
8665;SDS011;4370;48.916;8.380;2022-09-13T02:38:19;6.73;;;4.70;;
8665;SDS011;4370;48.916;8.380;2022-09-13T02:41:01;6.53;;;4.37;;
8665;SDS011;4370;48.916;8.380;2022-09-13T02:43:35;5.00;;;4.50;;
8665;SDS011;4370;48.916;8.380;2022-09-13T02:49:21;5.20;;;4.37;;
8665;SDS011;4370;48.916;8.380;2022-09-13T02:52:18;4.60;;;4.20;;
8665;SDS011;4370;48.916;8.380;2022-09-13T02:55:16;3.93;;;3.63;;
8665;SDS011;4370;48.916;8.380;2022-09-13T03:00:53;4.67;;;3.77;;
8665;SDS011;4370;48.916;8.380;2022-09-13T03:03:20;4.50;;;4.10;;
8665;SDS011;4370;48.916;8.380;2022-09-13T03:05:46;4.23;;;3.83;;
8665;SDS011;4370;48.916;8.380;2022-09-13T03:08:14;4.63;;;4.17;;
8665;SDS011;4370;48.916;8.380;2022-09-13T03:10:47;5.63;;;4.13;;
8665;SDS011;4370;48.916;8.380;2022-09-13T03:16:28;4.90;;;4.40;;
8665;SDS011;4370;48.916;8.380;2022-09-13T03:19:34;4.23;;;3.83;;
8665;SDS011;4370;48.916;8.380;2022-09-13T03:25:05;6.00;;;4.67;;
8665;SDS011;4370;48.916;8.380;2022-09-13T03:30:45;4.53;;;4.13;;
8665;SDS011;4370;48.916;8.380;2022-09-13T03:33:27;4.77;;;4.27;;
8665;SDS011;4370;48.916;8.380;2022-09-13T03:36:11;4.83;;;4.33;;
8665;SDS011;4370;48.916;8.380;2022-09-13T03:41:35;4.67;;;4.00;;
8665;SDS011;4370;48.916;8.380;2022-09-13T03:44:09;4.87;;;4.40;;
8665;SDS011;4370;48.916;8.380;2022-09-13T03:46:42;5.60;;;4.13;;
8665;SDS011;4370;48.916;8.380;2022-09-13T03:49:12;4.37;;;3.97;;
8665;SDS011;4370;48.916;8.380;2022-09-13T03:51:44;4.03;;;3.67;;
8665;SDS011;4370;48.916;8.380;2022-09-13T03:54:17;3.93;;;3.53;;
8665;SDS011;4370;48.916;8.380;2022-09-13T03:59:46;5.70;;;4.67;;
8665;SDS011;4370;48.916;8.380;2022-09-13T04:02:11;5.20;;;4.40;;
8665;SDS011;4370;48.916;8.380;2022-09-13T04:04:38;4.40;;;3.90;;
8665;SDS011;4370;48.916;8.380;2022-09-13T04:07:05;4.23;;;3.80;;
8665;SDS011;4370;48.916;8.380;2022-09-13T04:09:32;4.30;;;3.90;;
8665;SDS011;4370;48.916;8.380;2022-09-13T04:11:58;4.73;;;4.30;;
8665;SDS011;4370;48.916;8.380;2022-09-13T04:14:24;4.10;;;3.70;;
8665;SDS011;4370;48.916;8.380;2022-09-13T04:16:56;4.93;;;4.43;;
8665;SDS011;4370;48.916;8.380;2022-09-13T04:19:23;3.93;;;3.60;;
8665;SDS011;4370;48.916;8.380;2022-09-13T04:21:50;5.30;;;4.80;;
8665;SDS011;4370;48.916;8.380;2022-09-13T04:24:17;4.40;;;4.00;;
8665;SDS011;4370;48.916;8.380;2022-09-13T04:26:49;4.00;;;3.60;;
8665;SDS011;4370;48.916;8.380;2022-09-13T04:29:16;4.60;;;4.20;;
8665;SDS011;4370;48.916;8.380;2022-09-13T04:31:42;4.33;;;3.93;;
8665;SDS011;4370;48.916;8.380;2022-09-13T04:34:09;4.43;;;4.03;;
8665;SDS011;4370;48.916;8.380;2022-09-13T04:36:35;4.43;;;4.03;;
8665;SDS011;4370;48.916;8.380;2022-09-13T04:39:02;4.60;;;4.00;;
8665;SDS011;4370;48.916;8.380;2022-09-13T04:41:27;4.10;;;3.70;;
8665;SDS011;4370;48.916;8.380;2022-09-13T04:43:59;4.37;;;3.97;;
8665;SDS011;4370;48.916;8.380;2022-09-13T04:46:25;4.33;;;3.93;;
8665;SDS011;4370;48.916;8.380;2022-09-13T04:48:51;3.90;;;3.50;;
8665;SDS011;4370;48.916;8.380;2022-09-13T04:51:18;4.17;;;3.50;;
8665;SDS011;4370;48.916;8.380;2022-09-13T04:53:45;4.33;;;3.93;;
8665;SDS011;4370;48.916;8.380;2022-09-13T04:56:11;4.10;;;3.70;;
8665;SDS011;4370;48.916;8.380;2022-09-13T04:58:39;3.43;;;3.13;;
8665;SDS011;4370;48.916;8.380;2022-09-13T05:01:07;4.17;;;3.77;;
8665;SDS011;4370;48.916;8.380;2022-09-13T05:03:35;5.30;;;3.80;;
8665;SDS011;4370;48.916;8.380;2022-09-13T05:06:05;5.67;;;3.73;;
8665;SDS011;4370;48.916;8.380;2022-09-13T05:08:34;5.40;;;3.80;;
8665;SDS011;4370;48.916;8.380;2022-09-13T05:11:02;5.03;;;3.70;;
8665;SDS011;4370;48.916;8.380;2022-09-13T05:13:29;3.87;;;3.47;;
8665;SDS011;4370;48.916;8.380;2022-09-13T05:16:00;5.43;;;4.13;;
8665;SDS011;4370;48.916;8.380;2022-09-13T05:18:29;6.03;;;3.97;;
8665;SDS011;4370;48.916;8.380;2022-09-13T05:20:57;4.23;;;3.67;;
8665;SDS011;4370;48.916;8.380;2022-09-13T05:23:24;4.30;;;3.90;;
8665;SDS011;4370;48.916;8.380;2022-09-13T05:25:53;3.80;;;3.50;;
8665;SDS011;4370;48.916;8.380;2022-09-13T05:28:20;4.07;;;3.37;;
8665;SDS011;4370;48.916;8.380;2022-09-13T05:33:23;3.70;;;3.40;;
8665;SDS011;4370;48.916;8.380;2022-09-13T05:35:49;3.70;;;3.40;;
8665;SDS011;4370;48.916;8.380;2022-09-13T05:38:15;3.57;;;3.27;;
8665;SDS011;4370;48.916;8.380;2022-09-13T05:40:41;4.30;;;3.13;;
8665;SDS011;4370;48.916;8.380;2022-09-13T05:43:07;3.50;;;3.20;;
8665;SDS011;4370;48.916;8.380;2022-09-13T05:45:33;3.77;;;3.43;;
8665;SDS011;4370;48.916;8.380;2022-09-13T05:47:59;4.00;;;3.70;;
8665;SDS011;4370;48.916;8.380;2022-09-13T05:50:25;4.40;;;3.40;;
8665;SDS011;4370;48.916;8.380;2022-09-13T05:52:51;3.67;;;3.20;;
8665;SDS011;4370;48.916;8.380;2022-09-13T05:55:17;3.90;;;3.50;;
8665;SDS011;4370;48.916;8.380;2022-09-13T05:57:43;4.27;;;3.27;;
8665;SDS011;4370;48.916;8.380;2022-09-13T06:00:09;4.43;;;3.57;;
8665;SDS011;4370;48.916;8.380;2022-09-13T06:02:35;5.60;;;3.37;;
8665;SDS011;4370;48.916;8.380;2022-09-13T06:05:01;5.37;;;3.90;;
8665;SDS011;4370;48.916;8.380;2022-09-13T06:07:27;4.77;;;3.30;;
8665;SDS011;4370;48.916;8.380;2022-09-13T06:09:53;4.63;;;3.60;;
8665;SDS011;4370;48.916;8.380;2022-09-13T06:12:19;4.13;;;3.43;;
8665;SDS011;4370;48.916;8.380;2022-09-13T06:14:45;5.70;;;3.07;;
8665;SDS011;4370;48.916;8.380;2022-09-13T06:17:11;4.07;;;2.97;;
8665;SDS011;4370;48.916;8.380;2022-09-13T06:19:37;5.50;;;3.40;;
8665;SDS011;4370;48.916;8.380;2022-09-13T06:22:03;4.67;;;2.97;;
8665;SDS011;4370;48.916;8.380;2022-09-13T06:24:29;7.43;;;3.10;;
8665;SDS011;4370;48.916;8.380;2022-09-13T06:26:55;3.17;;;2.70;;
8665;SDS011;4370;48.916;8.380;2022-09-13T06:29:21;3.77;;;2.70;;
8665;SDS011;4370;48.916;8.380;2022-09-13T06:31:47;5.10;;;3.03;;
8665;SDS011;4370;48.916;8.380;2022-09-13T06:34:13;3.03;;;2.73;;
8665;SDS011;4370;48.916;8.380;2022-09-13T06:36:40;4.20;;;2.97;;
8665;SDS011;4370;48.916;8.380;2022-09-13T06:39:06;3.90;;;2.90;;
8665;SDS011;4370;48.916;8.380;2022-09-13T06:41:38;3.33;;;2.77;;
8665;SDS011;4370;48.916;8.380;2022-09-13T06:49:53;3.30;;;2.37;;
8665;SDS011;4370;48.916;8.380;2022-09-13T06:52:20;3.77;;;2.20;;
8665;SDS011;4370;48.916;8.380;2022-09-13T06:54:46;2.63;;;2.10;;
8665;SDS011;4370;48.916;8.380;2022-09-13T06:57:12;3.97;;;2.30;;
8665;SDS011;4370;48.916;8.380;2022-09-13T06:59:38;3.17;;;2.43;;
8665;SDS011;4370;48.916;8.380;2022-09-13T07:02:13;5.13;;;2.50;;
8665;SDS011;4370;48.916;8.380;2022-09-13T07:04:39;7.00;;;2.13;;
8665;SDS011;4370;48.916;8.380;2022-09-13T07:07:05;4.17;;;2.10;;
8665;SDS011;4370;48.916;8.380;2022-09-13T07:09:31;6.23;;;2.20;;
8665;SDS011;4370;48.916;8.380;2022-09-13T07:12:00;2.30;;;2.10;;
8665;SDS011;4370;48.916;8.380;2022-09-13T07:14:29;2.60;;;2.05;;
8665;SDS011;4370;48.916;8.380;2022-09-13T07:16:55;4.55;;;1.80;;
8665;SDS011;4370;48.916;8.380;2022-09-13T07:19:22;2.55;;;2.00;;
8665;SDS011;4370;48.916;8.380;2022-09-13T07:21:52;2.95;;;1.83;;
8665;SDS011;4370;48.916;8.380;2022-09-13T07:24:20;3.25;;;1.70;;
8665;SDS011;4370;48.916;8.380;2022-09-13T07:26:46;2.05;;;1.70;;
8665;SDS011;4370;48.916;8.380;2022-09-13T07:29:16;2.33;;;1.80;;
8665;SDS011;4370;48.916;8.380;2022-09-13T07:31:47;2.50;;;1.83;;
8665;SDS011;4370;48.916;8.380;2022-09-13T07:34:15;4.70;;;1.73;;
8665;SDS011;4370;48.916;8.380;2022-09-13T07:36:42;3.80;;;2.00;;
8665;SDS011;4370;48.916;8.380;2022-09-13T07:39:10;3.30;;;2.00;;
8665;SDS011;4370;48.916;8.380;2022-09-13T07:41:36;6.53;;;1.77;;
8665;SDS011;4370;48.916;8.380;2022-09-13T07:44:02;3.53;;;1.87;;
8665;SDS011;4370;48.916;8.380;2022-09-13T07:46:30;4.33;;;1.80;;
8665;SDS011;4370;48.916;8.380;2022-09-13T07:48:57;3.70;;;1.87;;
8665;SDS011;4370;48.916;8.380;2022-09-13T07:51:27;2.23;;;2.00;;
8665;SDS011;4370;48.916;8.380;2022-09-13T07:53:54;3.43;;;2.30;;
8665;SDS011;4370;48.916;8.380;2022-09-13T07:56:22;5.07;;;2.00;;
8665;SDS011;4370;48.916;8.380;2022-09-13T07:58:50;2.23;;;1.87;;
8665;SDS011;4370;48.916;8.380;2022-09-13T08:01:19;3.43;;;2.10;;
8665;SDS011;4370;48.916;8.380;2022-09-13T08:03:51;4.30;;;2.20;;
8665;SDS011;4370;48.916;8.380;2022-09-13T08:06:19;2.53;;;2.07;;
8665;SDS011;4370;48.916;8.380;2022-09-13T08:08:46;4.83;;;2.20;;
8665;SDS011;4370;48.916;8.380;2022-09-13T08:11:17;5.70;;;2.30;;
8665;SDS011;4370;48.916;8.380;2022-09-13T08:13:47;5.00;;;2.40;;
8665;SDS011;4370;48.916;8.380;2022-09-13T08:16:14;3.90;;;2.17;;
8665;SDS011;4370;48.916;8.380;2022-09-13T08:18:43;2.60;;;2.10;;
8665;SDS011;4370;48.916;8.380;2022-09-13T08:21:11;4.47;;;2.00;;
8665;SDS011;4370;48.916;8.380;2022-09-13T08:23:37;6.13;;;2.17;;
8665;SDS011;4370;48.916;8.380;2022-09-13T08:26:03;4.23;;;2.30;;
8665;SDS011;4370;48.916;8.380;2022-09-13T08:28:32;6.43;;;2.47;;
8665;SDS011;4370;48.916;8.380;2022-09-13T08:31:06;3.10;;;2.10;;
8665;SDS011;4370;48.916;8.380;2022-09-13T08:33:42;3.33;;;2.40;;
8665;SDS011;4370;48.916;8.380;2022-09-13T08:36:09;5.50;;;2.70;;
8665;SDS011;4370;48.916;8.380;2022-09-13T08:38:35;4.43;;;2.60;;
8665;SDS011;4370;48.916;8.380;2022-09-13T08:41:02;2.60;;;2.40;;
8665;SDS011;4370;48.916;8.380;2022-09-13T08:43:47;4.17;;;2.17;;
8665;SDS011;4370;48.916;8.380;2022-09-13T08:46:25;3.17;;;2.30;;
8665;SDS011;4370;48.916;8.380;2022-09-13T08:49:03;4.23;;;2.47;;
8665;SDS011;4370;48.916;8.380;2022-09-13T08:51:36;4.03;;;2.23;;
8665;SDS011;4370;48.916;8.380;2022-09-13T08:54:11;4.00;;;2.20;;
8665;SDS011;4370;48.916;8.380;2022-09-13T08:56:50;4.33;;;2.10;;
8665;SDS011;4370;48.916;8.380;2022-09-13T08:59:34;4.15;;;2.00;;
8665;SDS011;4370;48.916;8.380;2022-09-13T09:02:18;5.00;;;2.05;;
8665;SDS011;4370;48.916;8.380;2022-09-13T09:08:11;3.10;;;2.17;;
8665;SDS011;4370;48.916;8.380;2022-09-13T09:10:54;4.70;;;2.00;;
8665;SDS011;4370;48.916;8.380;2022-09-13T09:13:28;6.80;;;2.00;;
8665;SDS011;4370;48.916;8.380;2022-09-13T09:16:21;3.17;;;2.00;;
8665;SDS011;4370;48.916;8.380;2022-09-13T09:18:56;5.05;;;2.25;;
8665;SDS011;4370;48.916;8.380;2022-09-13T09:21:31;8.33;;;2.03;;
8665;SDS011;4370;48.916;8.380;2022-09-13T09:24:01;3.15;;;1.90;;
8665;SDS011;4370;48.916;8.380;2022-09-13T09:26:29;4.00;;;1.83;;
8665;SDS011;4370;48.916;8.380;2022-09-13T09:29:16;3.13;;;1.92;;
8665;SDS011;4370;48.916;8.380;2022-09-13T09:31:53;6.15;;;2.03;;
8665;SDS011;4370;48.916;8.380;2022-09-13T09:34:40;4.75;;;2.00;;
8665;SDS011;4370;48.916;8.380;2022-09-13T09:37:27;2.70;;;1.80;;
8665;SDS011;4370;48.916;8.380;2022-09-13T09:39:58;4.20;;;2.00;;
8665;SDS011;4370;48.916;8.380;2022-09-13T09:42:42;3.33;;;2.15;;
8665;SDS011;4370;48.916;8.380;2022-09-13T09:47:53;3.80;;;2.28;;
8665;SDS011;4370;48.916;8.380;2022-09-13T09:50:22;6.72;;;2.20;;
8665;SDS011;4370;48.916;8.380;2022-09-13T09:55:49;3.45;;;2.08;;
8665;SDS011;4370;48.916;8.380;2022-09-13T09:58:40;5.20;;;1.88;;
8665;SDS011;4370;48.916;8.380;2022-09-13T10:03:54;6.15;;;2.53;;
8665;SDS011;4370;48.916;8.380;2022-09-13T10:06:29;2.42;;;2.03;;
8665;SDS011;4370;48.916;8.380;2022-09-13T10:08:57;4.00;;;2.00;;
8665;SDS011;4370;48.916;8.380;2022-09-13T10:14:34;3.63;;;1.75;;
8665;SDS011;4370;48.916;8.380;2022-09-13T10:17:12;3.25;;;2.00;;
8665;SDS011;4370;48.916;8.380;2022-09-13T10:19:39;2.33;;;2.00;;
8665;SDS011;4370;48.916;8.380;2022-09-13T10:22:10;5.22;;;1.90;;
8665;SDS011;4370;48.916;8.380;2022-09-13T10:24:37;2.92;;;1.92;;
8665;SDS011;4370;48.916;8.380;2022-09-13T10:27:04;3.70;;;1.98;;
8665;SDS011;4370;48.916;8.380;2022-09-13T10:29:46;5.68;;;2.00;;
8665;SDS011;4370;48.916;8.380;2022-09-13T10:32:16;2.90;;;1.90;;
8665;SDS011;4370;48.916;8.380;2022-09-13T10:34:43;2.97;;;1.90;;
8665;SDS011;4370;48.916;8.380;2022-09-13T10:37:12;2.08;;;1.77;;
8665;SDS011;4370;48.916;8.380;2022-09-13T10:42:49;3.55;;;2.13;;
8665;SDS011;4370;48.916;8.380;2022-09-13T10:45:21;3.50;;;1.85;;
8665;SDS011;4370;48.916;8.380;2022-09-13T10:47:50;3.30;;;1.90;;
8665;SDS011;4370;48.916;8.380;2022-09-13T10:50:23;4.45;;;1.90;;
8665;SDS011;4370;48.916;8.380;2022-09-13T10:57:42;3.08;;;2.05;;
8665;SDS011;4370;48.916;8.380;2022-09-13T11:00:10;4.88;;;1.90;;
8665;SDS011;4370;48.916;8.380;2022-09-13T11:05:49;3.42;;;1.95;;
8665;SDS011;4370;48.916;8.380;2022-09-13T11:15:06;2.35;;;1.70;;
8665;SDS011;4370;48.916;8.380;2022-09-13T11:18:18;5.70;;;2.10;;
8665;SDS011;4370;48.916;8.380;2022-09-13T11:21:08;3.33;;;1.90;;
8665;SDS011;4370;48.916;8.380;2022-09-13T11:35:02;4.43;;;1.90;;
8665;SDS011;4370;48.916;8.380;2022-09-13T11:38:02;3.58;;;2.03;;
8665;SDS011;4370;48.916;8.380;2022-09-13T11:49:00;1.67;;;1.58;;
8665;SDS011;4370;48.916;8.380;2022-09-13T11:54:15;2.80;;;1.77;;
8665;SDS011;4370;48.916;8.380;2022-09-13T11:56:48;4.15;;;1.95;;
8665;SDS011;4370;48.916;8.380;2022-09-13T12:01:58;4.03;;;1.83;;
8665;SDS011;4370;48.916;8.380;2022-09-13T12:04:32;2.53;;;1.65;;
8665;SDS011;4370;48.916;8.380;2022-09-13T12:07:27;3.97;;;1.40;;
8665;SDS011;4370;48.916;8.380;2022-09-13T12:10:13;4.03;;;1.88;;
8665;SDS011;4370;48.916;8.380;2022-09-13T12:12:46;2.72;;;1.60;;
8665;SDS011;4370;48.916;8.380;2022-09-13T12:15:15;2.80;;;1.90;;
8665;SDS011;4370;48.916;8.380;2022-09-13T12:18:07;2.20;;;1.50;;
8665;SDS011;4370;48.916;8.380;2022-09-13T12:20:40;3.05;;;1.60;;
8665;SDS011;4370;48.916;8.380;2022-09-13T12:23:13;1.73;;;1.63;;
8665;SDS011;4370;48.916;8.380;2022-09-13T12:30:56;2.33;;;1.77;;
8665;SDS011;4370;48.916;8.380;2022-09-13T12:33:25;2.85;;;1.67;;
8665;SDS011;4370;48.916;8.380;2022-09-13T12:39:13;2.03;;;1.50;;
8665;SDS011;4370;48.916;8.380;2022-09-13T12:53:02;4.30;;;1.50;;
8665;SDS011;4370;48.916;8.380;2022-09-13T12:58:37;2.38;;;1.60;;
8665;SDS011;4370;48.916;8.380;2022-09-13T13:01:28;1.40;;;1.30;;
8665;SDS011;4370;48.916;8.380;2022-09-13T13:03:57;1.30;;;1.20;;
8665;SDS011;4370;48.916;8.380;2022-09-13T13:06:34;2.92;;;1.40;;
8665;SDS011;4370;48.916;8.380;2022-09-13T13:09:06;1.90;;;1.20;;
8665;SDS011;4370;48.916;8.380;2022-09-13T13:11:44;1.50;;;1.27;;
8665;SDS011;4370;48.916;8.380;2022-09-13T13:19:58;3.40;;;1.55;;
8665;SDS011;4370;48.916;8.380;2022-09-13T13:28:02;3.95;;;1.63;;
8665;SDS011;4370;48.916;8.380;2022-09-13T13:33:13;1.38;;;1.27;;
8665;SDS011;4370;48.916;8.380;2022-09-13T13:35:44;1.52;;;1.40;;
8665;SDS011;4370;48.916;8.380;2022-09-13T13:46:46;1.52;;;1.35;;
8665;SDS011;4370;48.916;8.380;2022-09-13T13:57:27;6.28;;;1.70;;
8665;SDS011;4370;48.916;8.380;2022-09-13T14:13:34;4.05;;;1.63;;
8665;SDS011;4370;48.916;8.380;2022-09-13T14:16:36;2.17;;;1.40;;
8665;SDS011;4370;48.916;8.380;2022-09-13T14:19:24;4.88;;;1.45;;
8665;SDS011;4370;48.916;8.380;2022-09-13T14:22:11;2.75;;;1.30;;
8665;SDS011;4370;48.916;8.380;2022-09-13T14:24:39;2.85;;;1.50;;
8665;SDS011;4370;48.916;8.380;2022-09-13T14:27:10;2.90;;;1.50;;
8665;SDS011;4370;48.916;8.380;2022-09-13T14:29:39;3.10;;;1.70;;
8665;SDS011;4370;48.916;8.380;2022-09-13T14:32:10;2.35;;;1.67;;
8665;SDS011;4370;48.916;8.380;2022-09-13T14:34:48;2.78;;;1.60;;
8665;SDS011;4370;48.916;8.380;2022-09-13T14:37:24;3.75;;;1.70;;
8665;SDS011;4370;48.916;8.380;2022-09-13T14:39:55;1.92;;;1.45;;
8665;SDS011;4370;48.916;8.380;2022-09-13T14:42:26;4.80;;;1.67;;
8665;SDS011;4370;48.916;8.380;2022-09-13T14:45:15;3.85;;;1.60;;
8665;SDS011;4370;48.916;8.380;2022-09-13T14:47:54;3.25;;;1.60;;
8665;SDS011;4370;48.916;8.380;2022-09-13T14:50:52;1.60;;;1.50;;
8665;SDS011;4370;48.916;8.380;2022-09-13T14:53:26;2.70;;;1.38;;
8665;SDS011;4370;48.916;8.380;2022-09-13T14:55:55;4.10;;;1.60;;
8665;SDS011;4370;48.916;8.380;2022-09-13T14:58:27;3.40;;;1.50;;
8665;SDS011;4370;48.916;8.380;2022-09-13T15:00:59;5.05;;;1.60;;
8665;SDS011;4370;48.916;8.380;2022-09-13T15:03:29;2.03;;;1.55;;
8665;SDS011;4370;48.916;8.380;2022-09-13T15:05:56;3.85;;;1.50;;
8665;SDS011;4370;48.916;8.380;2022-09-13T15:10:57;3.42;;;1.60;;
8665;SDS011;4370;48.916;8.380;2022-09-13T15:13:24;2.22;;;1.65;;
8665;SDS011;4370;48.916;8.380;2022-09-13T15:15:50;2.38;;;1.45;;
8665;SDS011;4370;48.916;8.380;2022-09-13T15:20:53;3.50;;;1.58;;
8665;SDS011;4370;48.916;8.380;2022-09-13T15:23:26;2.60;;;1.50;;
8665;SDS011;4370;48.916;8.380;2022-09-13T15:26:12;1.50;;;1.40;;
8665;SDS011;4370;48.916;8.380;2022-09-13T15:28:49;1.40;;;1.30;;
8665;SDS011;4370;48.916;8.380;2022-09-13T15:31:24;2.58;;;1.50;;
8665;SDS011;4370;48.916;8.380;2022-09-13T15:37:01;2.70;;;1.42;;
8665;SDS011;4370;48.916;8.380;2022-09-13T15:39:48;4.60;;;1.50;;
8665;SDS011;4370;48.916;8.380;2022-09-13T15:42:25;2.40;;;1.80;;
8665;SDS011;4370;48.916;8.380;2022-09-13T15:44:51;3.25;;;1.42;;
8665;SDS011;4370;48.916;8.380;2022-09-13T15:47:17;2.35;;;1.70;;
8665;SDS011;4370;48.916;8.380;2022-09-13T15:49:47;2.47;;;1.50;;
8665;SDS011;4370;48.916;8.380;2022-09-13T15:52:17;2.13;;;1.70;;
8665;SDS011;4370;48.916;8.380;2022-09-13T15:54:45;1.70;;;1.50;;
8665;SDS011;4370;48.916;8.380;2022-09-13T15:57:22;3.55;;;1.85;;
8665;SDS011;4370;48.916;8.380;2022-09-13T15:59:49;2.83;;;1.58;;
8665;SDS011;4370;48.916;8.380;2022-09-13T16:02:19;2.28;;;1.88;;
8665;SDS011;4370;48.916;8.380;2022-09-13T16:04:46;1.90;;;1.70;;
8665;SDS011;4370;48.916;8.380;2022-09-13T16:07:13;3.28;;;1.70;;
8665;SDS011;4370;48.916;8.380;2022-09-13T16:09:39;2.30;;;1.65;;
8665;SDS011;4370;48.916;8.380;2022-09-13T16:12:05;2.88;;;1.55;;
8665;SDS011;4370;48.916;8.380;2022-09-13T16:14:31;2.33;;;1.42;;
8665;SDS011;4370;48.916;8.380;2022-09-13T16:16:58;2.00;;;1.50;;
8665;SDS011;4370;48.916;8.380;2022-09-13T16:19:26;4.60;;;1.63;;
8665;SDS011;4370;48.916;8.380;2022-09-13T16:21:52;3.38;;;1.70;;
8665;SDS011;4370;48.916;8.380;2022-09-13T16:24:18;2.50;;;1.60;;
8665;SDS011;4370;48.916;8.380;2022-09-13T16:26:44;4.05;;;1.83;;
8665;SDS011;4370;48.916;8.380;2022-09-13T16:29:11;2.17;;;1.52;;
8665;SDS011;4370;48.916;8.380;2022-09-13T16:31:36;3.03;;;1.40;;
8665;SDS011;4370;48.916;8.380;2022-09-13T16:34:03;3.70;;;1.80;;
8665;SDS011;4370;48.916;8.380;2022-09-13T16:36:29;3.42;;;1.70;;
8665;SDS011;4370;48.916;8.380;2022-09-13T16:38:57;2.50;;;1.83;;
8665;SDS011;4370;48.916;8.380;2022-09-13T16:41:23;6.13;;;1.90;;
8665;SDS011;4370;48.916;8.380;2022-09-13T16:43:49;2.33;;;1.88;;
8665;SDS011;4370;48.916;8.380;2022-09-13T16:46:15;3.30;;;1.70;;
8665;SDS011;4370;48.916;8.380;2022-09-13T16:48:41;4.82;;;1.58;;
8665;SDS011;4370;48.916;8.380;2022-09-13T16:51:09;2.10;;;1.80;;
8665;SDS011;4370;48.916;8.380;2022-09-13T16:53:36;2.43;;;1.60;;
8665;SDS011;4370;48.916;8.380;2022-09-13T16:56:13;2.67;;;1.70;;
8665;SDS011;4370;48.916;8.380;2022-09-13T16:58:42;1.77;;;1.60;;
8665;SDS011;4370;48.916;8.380;2022-09-13T17:01:11;1.90;;;1.80;;
8665;SDS011;4370;48.916;8.380;2022-09-13T17:03:38;4.70;;;1.63;;
8665;SDS011;4370;48.916;8.380;2022-09-13T17:06:04;4.43;;;1.80;;
8665;SDS011;4370;48.916;8.380;2022-09-13T17:08:32;3.57;;;1.97;;
8665;SDS011;4370;48.916;8.380;2022-09-13T17:10:59;2.13;;;1.80;;
8665;SDS011;4370;48.916;8.380;2022-09-13T17:13:29;3.50;;;2.03;;
8665;SDS011;4370;48.916;8.380;2022-09-13T17:15:55;2.17;;;1.90;;
8665;SDS011;4370;48.916;8.380;2022-09-13T17:18:20;2.40;;;1.63;;
8665;SDS011;4370;48.916;8.380;2022-09-13T17:20:48;1.93;;;1.50;;
8665;SDS011;4370;48.916;8.380;2022-09-13T17:23:14;5.33;;;1.60;;
8665;SDS011;4370;48.916;8.380;2022-09-13T17:25:47;3.07;;;1.87;;
8665;SDS011;4370;48.916;8.380;2022-09-13T17:28:14;2.10;;;1.87;;
8665;SDS011;4370;48.916;8.380;2022-09-13T17:30:40;4.53;;;2.10;;
8665;SDS011;4370;48.916;8.380;2022-09-13T17:33:07;3.10;;;1.90;;
8665;SDS011;4370;48.916;8.380;2022-09-13T17:35:33;3.10;;;1.93;;
8665;SDS011;4370;48.916;8.380;2022-09-13T17:37:59;2.95;;;1.73;;
8665;SDS011;4370;48.916;8.380;2022-09-13T17:40:27;3.87;;;2.27;;
8665;SDS011;4370;48.916;8.380;2022-09-13T17:42:53;3.97;;;2.40;;
8665;SDS011;4370;48.916;8.380;2022-09-13T17:45:19;2.97;;;2.00;;
8665;SDS011;4370;48.916;8.380;2022-09-13T17:47:46;4.70;;;2.13;;
8665;SDS011;4370;48.916;8.380;2022-09-13T17:50:12;3.83;;;2.17;;
8665;SDS011;4370;48.916;8.380;2022-09-13T17:52:38;4.40;;;2.03;;
8665;SDS011;4370;48.916;8.380;2022-09-13T17:55:04;3.73;;;1.70;;
8665;SDS011;4370;48.916;8.380;2022-09-13T17:57:31;2.63;;;2.00;;
8665;SDS011;4370;48.916;8.380;2022-09-13T17:59:57;3.60;;;2.10;;
8665;SDS011;4370;48.916;8.380;2022-09-13T18:02:23;5.33;;;2.07;;
8665;SDS011;4370;48.916;8.380;2022-09-13T18:04:51;3.53;;;2.20;;
8665;SDS011;4370;48.916;8.380;2022-09-13T18:07:17;4.03;;;1.90;;
8665;SDS011;4370;48.916;8.380;2022-09-13T18:09:43;4.07;;;2.00;;
8665;SDS011;4370;48.916;8.380;2022-09-13T18:12:09;4.27;;;2.00;;
8665;SDS011;4370;48.916;8.380;2022-09-13T18:14:35;4.20;;;1.90;;
8665;SDS011;4370;48.916;8.380;2022-09-13T18:17:02;3.47;;;1.90;;
8665;SDS011;4370;48.916;8.380;2022-09-13T18:19:34;2.83;;;1.93;;
8665;SDS011;4370;48.916;8.380;2022-09-13T18:22:00;2.50;;;2.00;;
8665;SDS011;4370;48.916;8.380;2022-09-13T18:24:26;4.47;;;2.20;;
8665;SDS011;4370;48.916;8.380;2022-09-13T18:26:52;4.07;;;2.13;;
8665;SDS011;4370;48.916;8.380;2022-09-13T18:29:18;4.43;;;2.27;;
8665;SDS011;4370;48.916;8.380;2022-09-13T18:31:44;4.20;;;2.00;;
8665;SDS011;4370;48.916;8.380;2022-09-13T18:34:10;3.03;;;1.70;;
8665;SDS011;4370;48.916;8.380;2022-09-13T18:36:38;3.27;;;2.03;;
8665;SDS011;4370;48.916;8.380;2022-09-13T18:39:05;4.97;;;2.10;;
8665;SDS011;4370;48.916;8.380;2022-09-13T18:41:33;4.73;;;2.43;;
8665;SDS011;4370;48.916;8.380;2022-09-13T18:44:00;6.73;;;2.20;;
8665;SDS011;4370;48.916;8.380;2022-09-13T18:46:29;4.40;;;1.93;;